Niigata, Japan
Current Conditions -  °F | °C
As of 9:00 AM on Sunday 26 Oct 2014 (Local Time) from RJSN Reporting Station
Few Clouds Few Clouds  
Wind Chill: 64°   Ceiling: Unl
Heat Index: 64°   Visibility: 6mi
Dew Point: 50°   Wind: 10mph
Humidity: 59%   Direction: 170°S
Pressure: 30.12"   Gusts: NA
Location:  37.92°N, 139.04°E
Report Text: RJSN 260000Z 17009KT 9999 FEW040 18/10 Q1020
Loading
Personal Weather Stations






























Interactive Weather Map
Tropical Storm Tracking
New forecast layout! Learn more

10-Day Weather Forecast

Advertisements
Track Severe Weather on mobile